KESWICK RESERVOIR (KES)

Elevation: 596' · SACRAMENTO R basin · Operator: US Bureau of Reclamation

Provisional data, subject to change.
Query executed Saturday at 21:57:25   clock

Select a sensor type for a plot of data.
Note: Reservoir Flows are daily averages.

Earlier

Date RES ELE    STORAGE    RES CHG    OUTFLOW    INFLOW   
 FEET   AF   AF   CFS   CFS  
09/26/2014 582.89 21217 -704 4541 4187
09/27/2014 580.42 19766 -1451 4535 3806
09/28/2014 580.71 19933 167 4530 4617
09/29/2014 580.42 19766 -167 4537 4455
09/30/2014 580.10 19582 -184 4573 4482
10/01/2014 580.98 20088 506 4500 4758
10/02/2014 582.28 20853 765 4647 5038
10/03/2014 582.38 20913 60 4409 4444
10/04/2014 582.14 20770 -143 4403 4336
10/05/2014 583.07 21325 555 4395 4680
10/06/2014 584.94 22470 1145 4504 5087
10/07/2014 584.51 22205 -265 4462 4332
10/08/2014 585.07 22551 346 4542 4719
10/09/2014 584.70 22322 -229 4490 4378
10/10/2014 584.90 22445 123 4512 4576
10/11/2014 585.07 22551 106 4545 4601
10/12/2014 583.84 21793 -758 4535 4157
10/13/2014 584.28 22063 270 4536 4676
10/14/2014 583.70 21708 -355 4544 4369
10/15/2014 584.10 21952 244 4521 4648
10/16/2014 582.79 21158 -794 4545 4148
10/17/2014 582.70 21104 -54 4533 4508
10/18/2014 581.95 20657 -447 4538 4315
10/19/2014 580.72 19939 -718 4533 4173
10/20/2014 579.27 19114 -825 4535 4120
10/21/2014 577.84 18323 -791 4528 4129
10/22/2014 579.74 19378 1055 4528 5061
10/23/2014 584.53 22217 2839 4540 5971
10/24/2014 583.11 21350 -867 4527 4090
10/25/2014 -- -- -- -- --

Later | Latest

Warning! This data is preliminary and subject to revision.

Show KES Map | Plot KES Data | 1 Month KES Data | Real-Time KES Data | KES Info